Time;durP1;ratioP1;P1;durP2;ratioP2;P2;SDS_P1;SDS_P2;PMS_P1;PMS_P2;Temp;Humidity;BMP_temperature;BMP_pressure;BME280_temperature;BME280_humidity;BME280_pressure;Samples;Min_cycle;Max_cycle;Signal;HPM_P1;HPM_P2
2021/05/09 00:00:32;;;;;;;;;;;;;;;12.25;100.00;98205.00;5081684;28;20015;-75
2021/05/09 00:02:59;;;;;;;;;;;;;;;12.29;100.00;98211.28;5109453;28;19924;-75
2021/05/09 00:05:26;;;;;;;;;;;;;;;12.30;100.00;98200.84;5088543;28;19927;-75
2021/05/09 00:07:52;;;;;;;;;;;;;;;12.32;100.00;98204.78;5111764;27;19974;-75
2021/05/09 00:10:19;;;;;;;;;;;;;;;12.34;100.00;98205.09;5087006;28;19927;-75
2021/05/09 00:12:47;;;;;;;;;;;;;;;12.29;100.00;98197.28;5096994;28;19924;-75
2021/05/09 00:15:14;;;;;;;;;;;;;;;12.27;100.00;98202.56;5097007;28;19938;-75
2021/05/09 00:17:41;;;;;;;;;;;;;;;12.35;100.00;98181.44;5096956;28;20041;-75
2021/05/09 00:20:08;;;;;;;;;;;;;;;12.37;100.00;98201.38;5097229;28;19920;-75
2021/05/09 00:22:35;;;;;;;;;;;;;;;12.34;100.00;98198.72;5096873;28;19927;-75
2021/05/09 00:25:03;;;;;;;;;;;;;;;12.31;100.00;98197.59;5096802;28;20312;-75
2021/05/09 00:27:29;;;;;;;;;;;;;;;12.30;100.00;98196.03;5097090;28;19920;-75
2021/05/09 00:29:56;;;;;;;;;;;;;;;12.31;100.00;98175.19;5082236;28;20005;-76
2021/05/09 00:32:23;;;;;;;;;;;;;;;12.28;100.00;98184.50;5086100;28;20356;-75
2021/05/09 00:34:49;;;;;;;;;;;;;;;12.30;100.00;98196.03;5092124;28;19920;-75
2021/05/09 00:37:16;;;;;;;;;;;;;;;12.27;100.00;98196.94;5087449;28;19924;-75
2021/05/09 00:39:44;;;;;;;;;;;;;;;12.24;100.00;98188.66;5090586;28;20340;-75
2021/05/09 00:42:36;;;;;;;;;;;;;;;12.24;100.00;98175.47;5086793;28;20018;-75
2021/05/09 00:45:04;;;;;;;;;;;;;;;12.22;100.00;98171.56;5088246;28;19920;-75
2021/05/09 00:47:30;;;;;;;;;;;;;;;12.22;100.00;98179.97;5094953;28;20497;-75
2021/05/09 00:50:03;;;;;;;;;;;;;;;12.12;100.00;98167.91;5084259;28;19920;-75
2021/05/09 00:52:32;;;;;;;;;;;;;;;12.15;100.00;98172.59;5093536;28;20016;-75
2021/05/09 00:55:01;;;;;;;;;;;;;;;12.20;100.00;98174.03;5085512;28;20299;-75
2021/05/09 00:57:30;;;;;;;;;;;;;;;12.22;100.00;98166.72;5092125;28;19927;-75
2021/05/09 00:59:58;;;;;;;;;;;;;;;12.09;100.00;98156.81;5096378;28;19956;-75
2021/05/09 01:02:26;;;;;;;;;;;;;;;12.15;100.00;98164.19;5096167;28;19973;-75
2021/05/09 01:04:53;;;;;;;;;;;;;;;12.18;100.00;98170.88;5096088;28;20342;-75
2021/05/09 01:07:20;;;;;;;;;;;;;;;12.14;100.00;98159.84;5096142;28;19920;-75
2021/05/09 01:09:47;;;;;;;;;;;;;;;12.16;100.00;98168.53;5074964;28;20016;-75
2021/05/09 01:12:14;;;;;;;;;;;;;;;12.19;100.00;98173.22;5073747;28;19921;-75
2021/05/09 01:14:42;;;;;;;;;;;;;;;12.18;100.00;98159.69;5093649;28;19920;-75
2021/05/09 01:17:11;;;;;;;;;;;;;;;12.19;100.00;98173.22;5095887;28;19941;-75
2021/05/09 01:19:39;;;;;;;;;;;;;;;12.22;100.00;98161.13;5095624;28;19947;-75
2021/05/09 01:22:07;;;;;;;;;;;;;;;12.23;100.00;98175.91;5095835;28;19928;-75
2021/05/09 01:24:33;;;;;;;;;;;;;;;12.25;100.00;98168.59;5080116;28;19931;-75
2021/05/09 01:27:04;;;;;;;;;;;;;;;12.26;100.00;98167.38;5087132;28;20474;-75
2021/05/09 01:29:31;;;;;;;;;;;;;;;12.24;100.00;98167.06;5074260;28;20391;-75
2021/05/09 01:31:58;;;;;;;;;;;;;;;12.22;100.00;98160.34;5053971;28;19921;-75
2021/05/09 01:34:31;;;;;;;;;;;;;;;12.29;100.00;98163.69;5066232;28;19921;-75
2021/05/09 01:36:58;;;;;;;;;;;;;;;12.26;100.00;98167.38;5094660;28;20014;-75
2021/05/09 01:39:25;;;;;;;;;;;;;;;12.29;100.00;98176.88;5095576;28;19977;-75
2021/05/09 01:41:52;;;;;;;;;;;;;;;12.21;100.00;98165.16;5095412;28;19920;-75
2021/05/09 01:44:19;;;;;;;;;;;;;;;12.25;100.00;98149.00;5095158;28;20010;-75
2021/05/09 01:46:45;;;;;;;;;;;;;;;12.21;100.00;98159.56;5082094;28;19951;-75
2021/05/09 01:49:12;;;;;;;;;;;;;;;12.18;100.00;98154.88;5073547;28;20031;-75
2021/05/09 01:51:39;;;;;;;;;;;;;;;12.22;100.00;98149.16;5073874;28;19920;-75
2021/05/09 01:54:06;;;;;;;;;;;;;;;12.21;100.00;98142.75;5076009;28;19969;-75
2021/05/09 01:56:32;;;;;;;;;;;;;;;12.19;100.00;98145.22;5085379;28;19920;-75
2021/05/09 01:59:01;;;;;;;;;;;;;;;12.05;100.00;98136.56;5107808;28;19924;-75
2021/05/09 02:01:34;;;;;;;;;;;;;;;12.15;100.00;98143.78;5086313;28;19920;-75
2021/05/09 02:04:17;;;;;;;;;;;;;;;12.07;100.00;98137.66;5075480;28;19920;-75
2021/05/09 02:06:43;;;;;;;;;;;;;;;12.07;100.00;98142.50;5119501;27;19920;-75
2021/05/09 02:09:11;;;;;;;;;;;;;;;12.09;100.00;98145.63;5074016;28;19942;-75
2021/05/09 02:11:41;;;;;;;;;;;;;;;12.04;100.00;98138.59;5086347;28;19921;-75
2021/05/09 02:14:20;;;;;;;;;;;;;;;12.01;100.00;98133.91;5107881;28;19920;-75
2021/05/09 02:16:52;;;;;;;;;;;;;;;12.08;100.00;98135.66;5085423;28;19924;-75
2021/05/09 02:19:20;;;;;;;;;;;;;;;12.15;100.00;98152.19;5073299;28;19927;-75
2021/05/09 02:21:50;;;;;;;;;;;;;;;12.15;100.00;98146.59;5086656;28;19970;-75
2021/05/09 02:24:17;;;;;;;;;;;;;;;12.16;100.00;98140.53;5086497;28;20015;-75
2021/05/09 02:26:46;;;;;;;;;;;;;;;12.10;100.00;98139.56;5068032;28;19928;-75
2021/05/09 02:29:13;;;;;;;;;;;;;;;12.08;100.00;98138.47;5073101;28;19920;-75
2021/05/09 02:31:42;;;;;;;;;;;;;;;12.15;100.00;98141.00;5074001;28;19924;-75
2021/05/09 02:34:20;;;;;;;;;;;;;;;12.08;100.00;98144.84;5070596;28;19924;-75
2021/05/09 02:36:47;;;;;;;;;;;;;;;12.06;100.00;98152.91;5073527;28;19920;-75
2021/05/09 02:39:15;;;;;;;;;;;;;;;12.08;100.00;98144.84;5089262;28;19936;-75
2021/05/09 02:41:42;;;;;;;;;;;;;;;12.14;100.00;98148.63;5073728;28;19921;-75
2021/05/09 02:44:09;;;;;;;;;;;;;;;12.08;100.00;98156.06;5072799;28;20378;-76
2021/05/09 02:46:36;;;;;;;;;;;;;;;12.10;100.00;98155.59;5073710;28;20417;-76
2021/05/09 02:49:03;;;;;;;;;;;;;;;12.10;100.00;98164.75;5073562;28;19920;-75
2021/05/09 02:51:30;;;;;;;;;;;;;;;12.14;100.00;98159.84;5072758;28;20018;-75
2021/05/09 02:53:57;;;;;;;;;;;;;;;12.10;100.00;98152.78;5105890;28;19928;-75
2021/05/09 02:56:24;;;;;;;;;;;;;;;12.12;100.00;98139.91;5072720;28;19925;-75
2021/05/09 02:58:53;;;;;;;;;;;;;;;12.09;100.00;98146.41;5073555;28;20306;-75
2021/05/09 03:01:19;;;;;;;;;;;;;;;12.12;100.00;98151.09;5073477;28;19928;-75
2021/05/09 03:03:46;;;;;;;;;;;;;;;12.07;100.00;98134.13;5072345;28;20053;-75
2021/05/09 03:06:13;;;;;;;;;;;;;;;11.98;100.00;98081.63;5106169;28;20001;-75
2021/05/09 03:08:40;;;;;;;;;;;;;;;12.04;100.00;98121.78;5071505;28;20363;-75
2021/05/09 03:11:07;;;;;;;;;;;;;;;12.08;100.00;98116.84;5072276;28;19978;-75
2021/05/09 03:13:34;;;;;;;;;;;;;;;12.04;100.00;98105.00;5073687;28;19920;-75
2021/05/09 03:16:02;;;;;;;;;;;;;;;12.05;100.00;98106.56;5073252;28;20260;-75
2021/05/09 03:18:28;;;;;;;;;;;;;;;11.99;100.00;98104.81;5073475;28;19967;-75
2021/05/09 03:20:56;;;;;;;;;;;;;;;11.98;100.00;98101.22;5073287;28;19959;-75
2021/05/09 03:23:23;;;;;;;;;;;;;;;12.02;100.00;98101.88;5073020;28;20019;-75
2021/05/09 03:25:49;;;;;;;;;;;;;;;12.06;100.00;98105.31;5073367;28;19921;-75
2021/05/09 03:28:16;;;;;;;;;;;;;;;12.16;100.00;98117.38;5073275;28;19924;-75
2021/05/09 03:30:42;;;;;;;;;;;;;;;12.10;100.00;98119.19;5072083;28;19920;-75
2021/05/09 03:33:09;;;;;;;;;;;;;;;12.14;100.00;98129.03;5072354;28;20015;-75
2021/05/09 03:35:36;;;;;;;;;;;;;;;12.09;100.00;98128.81;5072223;28;20275;-75
2021/05/09 03:38:05;;;;;;;;;;;;;;;12.08;100.00;98122.47;5072753;28;20291;-75
2021/05/09 03:40:34;;;;;;;;;;;;;;;12.14;100.00;98117.84;5058279;28;19920;-75
2021/05/09 03:43:02;;;;;;;;;;;;;;;12.12;100.00;98127.91;5071706;28;19926;-75
2021/05/09 03:45:30;;;;;;;;;;;;;;;12.09;100.00;98098.81;5072362;28;20325;-75
2021/05/09 03:47:57;;;;;;;;;;;;;;;12.09;100.00;98121.22;5072932;28;20447;-75
2021/05/09 03:50:24;;;;;;;;;;;;;;;11.99;100.00;98102.78;5072469;28;20256;-75
2021/05/09 03:52:51;;;;;;;;;;;;;;;12.00;100.00;98103.56;5071374;28;19960;-75
2021/05/09 03:55:17;;;;;;;;;;;;;;;11.90;100.00;98105.53;5072591;28;19966;-75
2021/05/09 03:57:44;;;;;;;;;;;;;;;11.90;100.00;98105.53;5072936;28;19920;-75
2021/05/09 04:00:11;;;;;;;;;;;;;;;11.90;100.00;98101.94;5072514;28;19999;-75
2021/05/09 04:02:42;;;;;;;;;;;;;;;11.83;100.00;98091.78;5071402;28;19927;-75
2021/05/09 04:05:10;;;;;;;;;;;;;;;11.91;100.00;98095.09;5072766;28;20367;-75
2021/05/09 04:07:37;;;;;;;;;;;;;;;11.80;100.00;98103.88;5071960;28;19945;-75
2021/05/09 04:10:04;;;;;;;;;;;;;;;11.86;100.00;98095.69;5072697;28;19927;-75
2021/05/09 04:12:32;;;;;;;;;;;;;;;11.92;100.00;98103.03;5072389;28;20375;-75
2021/05/09 04:14:59;;;;;;;;;;;;;;;11.86;100.00;98104.84;5071417;28;19970;-75
2021/05/09 04:17:25;;;;;;;;;;;;;;;11.90;100.00;98111.13;5072228;28;19972;-75
2021/05/09 04:19:52;;;;;;;;;;;;;;;11.92;100.00;98105.06;5072245;28;19924;-75
2021/05/09 04:22:19;;;;;;;;;;;;;;;11.99;100.00;98113.19;5072270;28;20302;-75
2021/05/09 04:24:47;;;;;;;;;;;;;;;11.95;100.00;98116.13;5072224;28;19920;-75
2021/05/09 04:27:14;;;;;;;;;;;;;;;11.95;100.00;98116.13;5072604;28;19924;-75
2021/05/09 04:29:40;;;;;;;;;;;;;;;11.92;100.00;98119.81;5072133;28;19920;-75
2021/05/09 04:32:07;;;;;;;;;;;;;;;11.93;100.00;98115.81;5104674;28;19985;-75
2021/05/09 04:34:34;;;;;;;;;;;;;;;11.90;100.00;98127.91;5071838;28;20352;-75
2021/05/09 04:37:00;;;;;;;;;;;;;;;11.91;100.00;98135.06;5071864;28;19920;-75
2021/05/09 04:39:27;;;;;;;;;;;;;;;11.84;100.00;98135.34;5099191;28;19920;-75
2021/05/09 04:41:53;;;;;;;;;;;;;;;11.75;100.00;98121.28;5072185;28;19932;-75
2021/05/09 04:44:21;;;;;;;;;;;;;;;11.72;100.00;98126.97;5072209;28;19921;-75
2021/05/09 04:46:48;;;;;;;;;;;;;;;11.65;100.00;98128.00;5075305;28;19920;-75
2021/05/09 04:49:15;;;;;;;;;;;;;;;11.62;100.00;98140.09;5075854;28;19920;-75
2021/05/09 04:51:41;;;;;;;;;;;;;;;11.58;100.00;98133.81;5075670;28;20318;-76
2021/05/09 04:54:08;;;;;;;;;;;;;;;11.44;100.00;98111.13;5075414;28;19956;-75
2021/05/09 04:56:35;;;;;;;;;;;;;;;11.40;100.00;98099.31;5057990;28;20011;-75
2021/05/09 04:59:01;;;;;;;;;;;;;;;11.40;100.00;98094.50;5074941;28;19930;-75
2021/05/09 05:01:28;;;;;;;;;;;;;;;11.40;100.00;98122.47;5075417;28;20363;-75
2021/05/09 05:03:54;;;;;;;;;;;;;;;11.35;100.00;98092.25;5075429;28;20311;-75
2021/05/09 05:06:21;;;;;;;;;;;;;;;11.38;100.00;98079.38;5075395;28;20268;-75
2021/05/09 05:08:48;;;;;;;;;;;;;;;11.40;100.00;98086.09;5074824;28;19920;-75
2021/05/09 05:11:14;;;;;;;;;;;;;;;11.40;100.00;98082.53;5074329;28;19921;-75
2021/05/09 05:13:41;;;;;;;;;;;;;;;11.34;100.00;98082.31;5088403;28;19919;-75
2021/05/09 05:16:09;;;;;;;;;;;;;;;11.41;100.00;98079.28;5082245;28;20002;-75
2021/05/09 05:18:37;;;;;;;;;;;;;;;11.45;100.00;98068.72;5084148;28;19924;-75
2021/05/09 05:21:05;;;;;;;;;;;;;;;11.50;100.00;98070.16;5074892;28;20360;-75
2021/05/09 05:23:33;;;;;;;;;;;;;;;11.48;100.00;98055.88;5086214;28;19920;-75
2021/05/09 05:26:00;;;;;;;;;;;;;;;11.45;100.00;98045.59;5076932;28;19928;-75
2021/05/09 05:28:26;;;;;;;;;;;;;;;11.42;100.00;98036.06;5118884;27;19969;-75
2021/05/09 05:30:53;;;;;;;;;;;;;;;11.34;100.00;98028.41;5083244;28;19928;-75
2021/05/09 05:33:24;;;;;;;;;;;;;;;11.20;100.00;98040.88;5084351;28;19999;-78
2021/05/09 05:35:51;;;;;;;;;;;;;;;11.15;100.00;98030.25;5083598;28;19928;-74
2021/05/09 05:38:18;;;;;;;;;;;;;;;11.05;100.00;98022.22;5084967;28;19920;-75
2021/05/09 05:40:47;;;;;;;;;;;;;;;10.98;100.00;98003.69;5116913;27;20371;-75
2021/05/09 05:43:14;;;;;;;;;;;;;;;10.91;100.00;97990.75;5102272;28;19966;-75
2021/05/09 05:45:41;;;;;;;;;;;;;;;10.94;100.00;97989.06;5074357;28;19989;-75
2021/05/09 05:48:13;;;;;;;;;;;;;;;10.88;100.00;97979.69;5074664;28;19920;-75
2021/05/09 05:50:53;;;;;;;;;;;;;;;10.92;100.00;97980.34;5096199;27;20437;-74
2021/05/09 05:53:21;;;;;;;;;;;;;;;10.82;100.00;97987.06;5076057;28;20359;-81
2021/05/09 05:55:48;;;;;;;;;;;;;;;10.79;100.00;97987.97;5075014;28;19920;-74
2021/05/09 05:58:15;;;;;;;;;;;;;;;10.83;100.00;97955.09;5073728;28;19927;-73
2021/05/09 06:00:42;;;;;;;;;;;;;;;10.87;100.00;97962.13;5074137;28;20070;-73
2021/05/09 06:03:09;;;;;;;;;;;;;;;10.84;100.00;97965.06;5073192;28;19936;-72
2021/05/09 06:05:36;;;;;;;;;;;;;;;10.90;100.00;97952.06;5074289;28;19928;-73
2021/05/09 06:08:03;;;;;;;;;;;;;;;10.88;100.00;97937.75;5073707;28;19928;-76
2021/05/09 06:10:30;;;;;;;;;;;;;;;10.90;100.00;97933.28;5106296;28;19977;-75
2021/05/09 06:12:57;;;;;;;;;;;;;;;10.97;100.00;97921.06;5074044;28;20168;-76
2021/05/09 06:15:23;;;;;;;;;;;;;;;11.04;100.00;97892.88;5074262;28;19920;-76
2021/05/09 06:17:50;;;;;;;;;;;;;;;11.08;100.00;97876.75;5073772;28;19943;-76
2021/05/09 06:20:17;;;;;;;;;;;;;;;11.11;100.00;97841.50;5074256;28;19935;-76
2021/05/09 06:22:44;;;;;;;;;;;;;;;11.18;100.00;97780.53;5074328;28;20278;-76
2021/05/09 06:25:10;;;;;;;;;;;;;;;11.29;100.00;97744.56;5073910;28;19963;-76
2021/05/09 06:27:37;;;;;;;;;;;;;;;11.32;100.00;97715.66;5073932;28;20006;-76
2021/05/09 06:30:04;;;;;;;;;;;;;;;11.35;100.00;97672.81;5072927;28;19920;-76
2021/05/09 06:32:30;;;;;;;;;;;;;;;11.38;100.00;97645.94;5096971;28;20307;-76
2021/05/09 06:34:57;;;;;;;;;;;;;;;11.55;100.00;97620.03;5073545;28;19955;-76
2021/05/09 06:37:26;;;;;;;;;;;;;;;11.71;100.00;97621.75;5074128;28;19927;-75
2021/05/09 06:39:53;;;;;;;;;;;;;;;11.85;100.00;97610.75;5073489;28;19920;-76
2021/05/09 06:42:19;;;;;;;;;;;;;;;11.66;100.00;97592.38;5072661;28;19927;-76
2021/05/09 06:44:52;;;;;;;;;;;;;;;11.54;100.00;97573.69;5073969;28;19925;-76
2021/05/09 06:47:18;;;;;;;;;;;;;;;11.62;100.00;97551.78;5083032;28;20012;-76
2021/05/09 06:49:45;;;;;;;;;;;;;;;11.64;100.00;97554.94;5073897;28;20007;-78
2021/05/09 06:52:12;;;;;;;;;;;;;;;11.72;100.00;97542.19;5075423;28;19950;-76
2021/05/09 06:54:39;;;;;;;;;;;;;;;11.91;100.00;97546.53;5073392;28;19921;-75
2021/05/09 06:57:06;;;;;;;;;;;;;;;12.22;100.00;97561.09;5073270;28;19924;-77
2021/05/09 06:59:32;;;;;;;;;;;;;;;12.14;100.00;97543.06;5072385;28;19926;-76
2021/05/09 07:01:59;;;;;;;;;;;;;;;11.96;100.00;97515.91;5072120;28;19963;-76
2021/05/09 07:04:25;;;;;;;;;;;;;;;11.74;100.00;97484.53;5073658;28;19931;-76
2021/05/09 07:06:52;;;;;;;;;;;;;;;11.63;100.00;97478.63;5072269;28;19920;-76
2021/05/09 07:09:18;;;;;;;;;;;;;;;11.47;100.00;97473.34;5072708;28;19998;-76
2021/05/09 07:11:45;;;;;;;;;;;;;;;11.52;100.00;97464.34;5073412;28;19924;-76
2021/05/09 07:14:12;;;;;;;;;;;;;;;11.55;100.00;97435.44;5073404;28;19928;-76
2021/05/09 07:16:39;;;;;;;;;;;;;;;11.41;100.00;97424.09;5069422;28;20003;-76
2021/05/09 07:19:07;;;;;;;;;;;;;;;11.46;100.00;97415.09;5077509;28;19924;-76
2021/05/09 07:21:46;;;;;;;;;;;;;;;11.42;100.00;97404.03;5080054;28;19920;-76
2021/05/09 07:24:14;;;;;;;;;;;;;;;11.58;100.00;97400.94;5105610;28;19927;-76
2021/05/09 07:26:40;;;;;;;;;;;;;;;11.77;100.00;97396.84;5072121;28;19921;-76
2021/05/09 07:29:07;;;;;;;;;;;;;;;11.97;100.00;97383.09;5072220;28;20456;-77
2021/05/09 07:31:37;;;;;;;;;;;;;;;11.97;100.00;97371.91;5073126;28;19999;-77
2021/05/09 07:34:04;;;;;;;;;;;;;;;11.93;100.00;97346.13;5073234;28;20007;-76
2021/05/09 07:36:33;;;;;;;;;;;;;;;12.03;100.00;97335.66;5088806;28;20353;-77
2021/05/09 07:39:00;;;;;;;;;;;;;;;11.96;100.00;97325.59;5055333;28;19935;-77
2021/05/09 07:41:26;;;;;;;;;;;;;;;11.88;100.00;97299.19;5072335;28;19961;-76
2021/05/09 07:43:53;;;;;;;;;;;;;;;11.84;100.00;97283.81;5073072;28;19921;-75
2021/05/09 07:46:20;;;;;;;;;;;;;;;11.81;100.00;97271.56;5072496;28;20007;-76
2021/05/09 07:48:47;;;;;;;;;;;;;;;11.71;100.00;97253.25;5071619;28;19924;-77
2021/05/09 07:51:14;;;;;;;;;;;;;;;11.66;100.00;97256.69;5072857;28;20037;-78
2021/05/09 07:53:40;;;;;;;;;;;;;;;11.52;100.00;97237.78;5104930;28;19920;-76
2021/05/09 07:56:07;;;;;;;;;;;;;;;11.60;100.00;97241.78;5084116;28;20398;-76
2021/05/09 07:58:33;;;;;;;;;;;;;;;11.59;100.00;97251.44;5087570;28;20396;-76
2021/05/09 08:01:01;;;;;;;;;;;;;;;11.68;100.00;97237.44;5085524;28;19921;-76
2021/05/09 08:03:27;;;;;;;;;;;;;;;11.68;100.00;97231.03;5072534;28;19943;-76
2021/05/09 08:05:54;;;;;;;;;;;;;;;11.71;100.00;97225.28;5079820;28;19920;-76
2021/05/09 08:08:25;;;;;;;;;;;;;;;11.73;100.00;97214.41;5084417;28;20018;-75
2021/05/09 08:10:51;;;;;;;;;;;;;;;11.80;100.00;97236.41;5079223;28;19949;-76
2021/05/09 08:13:18;;;;;;;;;;;;;;;11.68;100.00;97231.03;5088773;28;19927;-76
2021/05/09 08:15:45;;;;;;;;;;;;;;;11.62;100.00;97210.53;5090219;28;19920;-75
2021/05/09 08:18:11;;;;;;;;;;;;;;;11.68;100.00;97212.25;5085615;28;20077;-75
2021/05/09 08:20:38;;;;;;;;;;;;;;;11.86;100.00;97223.31;5090011;28;19920;-75
2021/05/09 08:23:05;;;;;;;;;;;;;;;11.95;100.00;97220.47;5090700;28;19924;-75
2021/05/09 08:25:34;;;;;;;;;;;;;;;12.12;100.00;97207.59;5086492;28;19920;-76
2021/05/09 08:28:01;;;;;;;;;;;;;;;12.19;100.00;97201.63;5086210;28;19924;-76
2021/05/09 08:30:28;;;;;;;;;;;;;;;12.30;100.00;97207.47;5086592;28;19920;-74
2021/05/09 08:32:54;;;;;;;;;;;;;;;12.49;100.00;97214.47;5089293;28;20364;-75
2021/05/09 08:35:21;;;;;;;;;;;;;;;12.56;100.00;97216.09;5094012;28;20315;-74
2021/05/09 08:37:47;;;;;;;;;;;;;;;12.55;100.00;97209.75;5092610;28;19928;-75
2021/05/09 08:40:15;;;;;;;;;;;;;;;12.75;100.00;97211.91;5094218;28;19931;-75
2021/05/09 08:42:46;;;;;;;;;;;;;;;12.72;100.00;97196.81;5082468;28;20489;-75
2021/05/09 08:45:13;;;;;;;;;;;;;;;12.94;100.00;97192.84;5076133;28;20253;-75
2021/05/09 08:47:42;;;;;;;;;;;;;;;13.18;100.00;97191.50;5075977;28;19920;-75
2021/05/09 08:50:09;;;;;;;;;;;;;;;13.29;100.00;97177.66;5074365;28;19920;-75
2021/05/09 08:52:36;;;;;;;;;;;;;;;13.44;100.00;97170.00;5075789;28;20360;-76
2021/05/09 08:55:04;;;;;;;;;;;;;;;13.38;100.00;97163.53;5074638;28;19946;-75
2021/05/09 08:57:30;;;;;;;;;;;;;;;13.34;100.00;97146.13;5075617;28;19921;-75
2021/05/09 08:59:57;;;;;;;;;;;;;;;13.31;100.00;97141.50;5074742;28;19998;-75
2021/05/09 09:02:23;;;;;;;;;;;;;;;13.28;100.00;97139.69;5075729;28;20013;-75
2021/05/09 09:04:52;;;;;;;;;;;;;;;13.21;100.00;97120.44;5075563;28;19921;-75
2021/05/09 09:07:19;;;;;;;;;;;;;;;13.29;100.00;97115.19;5075670;28;20009;-76
2021/05/09 09:09:47;;;;;;;;;;;;;;;13.20;100.00;97099.28;5074652;28;20376;-75
2021/05/09 09:12:16;;;;;;;;;;;;;;;13.22;100.00;97087.56;5075298;28;19970;-75
2021/05/09 09:14:56;;;;;;;;;;;;;;;13.39;100.00;97085.78;5108100;28;20069;-75
2021/05/09 09:17:23;;;;;;;;;;;;;;;13.36;100.00;97081.16;5075535;28;19921;-75
2021/05/09 09:20:07;;;;;;;;;;;;;;;13.39;100.00;97085.78;5091600;28;20066;-75
2021/05/09 09:22:49;;;;;;;;;;;;;;;13.53;100.00;97084.94;5078470;28;19920;-75
2021/05/09 09:28:33;;;;;;;;;;;;;;;13.68;100.00;97057.56;5076964;28;20002;-76
2021/05/09 09:31:00;;;;;;;;;;;;;;;13.43;100.00;97058.28;5080902;28;19947;-75
2021/05/09 09:33:27;;;;;;;;;;;;;;;13.40;100.00;97048.03;5080685;28;19924;-76
2021/05/09 09:35:57;;;;;;;;;;;;;;;13.47;100.00;97042.00;5082485;28;19927;-75
2021/05/09 09:38:28;;;;;;;;;;;;;;;13.42;100.00;97028.69;5086319;28;19928;-75
2021/05/09 09:41:12;;;;;;;;;;;;;;;13.58;100.00;97025.31;5080655;28;19924;-76
2021/05/09 09:43:39;;;;;;;;;;;;;;;13.70;100.00;97032.59;5082289;28;19928;-75
2021/05/09 09:46:23;;;;;;;;;;;;;;;13.93;100.00;97028.78;5078532;28;20481;-75
2021/05/09 09:48:50;;;;;;;;;;;;;;;14.06;100.00;97026.34;5080751;28;19924;-76
2021/05/09 09:51:17;;;;;;;;;;;;;;;14.23;100.00;97018.88;5086047;28;19920;-76
2021/05/09 09:53:45;;;;;;;;;;;;;;;14.29;100.00;97028.94;5073158;28;19928;-75
2021/05/09 09:56:11;;;;;;;;;;;;;;;13.96;100.00;97030.59;5080802;28;19942;-75
2021/05/09 09:58:53;;;;;;;;;;;;;;;14.03;100.00;97030.94;5086800;28;19923;-76
2021/05/09 10:01:32;;;;;;;;;;;;;;;14.30;100.00;97035.31;5051981;28;20023;-76
2021/05/09 10:04:06;;;;;;;;;;;;;;;14.12;100.00;97035.59;5073832;28;19966;-76
2021/05/09 10:06:34;;;;;;;;;;;;;;;14.15;100.00;97014.97;5067567;28;19920;-76
2021/05/09 10:09:01;;;;;;;;;;;;;;;14.12;100.00;97005.50;5069850;28;20006;-75
2021/05/09 10:11:28;;;;;;;;;;;;;;;14.27;100.00;97002.59;5065535;28;20017;-76
2021/05/09 10:13:55;;;;;;;;;;;;;;;14.34;100.00;97008.53;5070419;28;19924;-75
2021/05/09 10:16:23;;;;;;;;;;;;;;;14.52;100.00;97004.63;5068284;28;19943;-76
2021/05/09 10:18:57;;;;;;;;;;;;;;;14.46;100.00;97003.78;5069862;28;19921;-75
2021/05/09 10:21:28;;;;;;;;;;;;;;;14.56;100.00;97002.34;5085786;28;19924;-75
2021/05/09 10:24:08;;;;;;;;;;;;;;;14.73;100.00;96991.22;5086986;28;20287;-76
2021/05/09 10:26:47;;;;;;;;;;;;;;;14.83;100.00;96981.34;5061961;28;20384;-75
2021/05/09 10:29:32;;;;;;;;;;;;;;;15.06;100.00;96982.97;5074194;28;20452;-76
2021/05/09 10:32:00;;;;;;;;;;;;;;;15.02;100.00;96962.78;5084287;28;19920;-75
2021/05/09 10:34:46;;;;;;;;;;;;;;;14.84;100.00;96963.97;5080520;28;19920;-75
2021/05/09 10:37:32;;;;;;;;;;;;;;;15.03;100.00;96959.47;5069017;28;20373;-75
2021/05/09 10:40:17;;;;;;;;;;;;;;;15.41;100.00;96970.16;5069105;28;20380;-76
2021/05/09 10:42:44;;;;;;;;;;;;;;;15.62;100.00;96967.91;5069532;28;19924;-76
2021/05/09 10:45:11;;;;;;;;;;;;;;;15.95;100.00;96968.00;5069280;28;20300;-76
2021/05/09 10:47:38;;;;;;;;;;;;;;;15.51;100.00;96954.59;5069984;28;19921;-75
2021/05/09 10:50:26;;;;;;;;;;;;;;;15.57;100.00;96940.56;5069191;28;19928;-75
2021/05/09 10:52:55;;;;;;;;;;;;;;;15.53;100.00;96926.72;5063557;28;19920;-75
2021/05/09 10:55:41;;;;;;;;;;;;;;;15.51;100.00;96912.38;5084264;28;19920;-75
2021/05/09 10:58:13;;;;;;;;;;;;;;;15.49;100.00;96920.56;5088317;28;20296;-75
2021/05/09 11:01:03;;;;;;;;;;;;;;;15.62;100.00;96917.25;5082517;28;19924;-75
2021/05/09 11:03:36;;;;;;;;;;;;;;;15.73;100.00;96922.91;5079809;28;19920;-77
2021/05/09 11:06:05;;;;;;;;;;;;;;;16.03;100.00;96919.13;5087954;28;19924;-76
2021/05/09 11:08:41;;;;;;;;;;;;;;;15.72;100.00;96907.31;5086367;28;19927;-75
2021/05/09 11:11:11;;;;;;;;;;;;;;;15.71;100.00;96919.84;5081624;28;19920;-75
2021/05/09 11:14:11;;;;;;;;;;;;;;;16.05;100.00;96905.28;5078242;28;19920;-76
2021/05/09 11:16:38;;;;;;;;;;;;;;;16.14;100.00;96902.25;5088420;27;19928;-75
2021/05/09 11:19:13;;;;;;;;;;;;;;;15.97;100.00;96886.59;5083771;28;19920;-75
2021/05/09 11:21:47;;;;;;;;;;;;;;;15.75;100.00;96887.34;5085638;28;19920;-74
2021/05/09 11:24:21;;;;;;;;;;;;;;;15.04;100.00;96889.94;5073304;28;19927;-75
2021/05/09 11:26:52;;;;;;;;;;;;;;;15.16;100.00;96824.78;5063708;28;19921;-75
2021/05/09 11:29:20;;;;;;;;;;;;;;;15.49;100.00;96788.31;5072606;28;20434;-75
2021/05/09 11:31:47;;;;;;;;;;;;;;;15.88;100.00;96769.38;5080830;28;20375;-75
2021/05/09 11:34:14;;;;;;;;;;;;;;;16.08;100.00;96746.53;5075308;28;19920;-75
2021/05/09 11:36:46;;;;;;;;;;;;;;;16.15;100.00;96739.63;5072934;28;19920;-75
2021/05/09 11:39:19;;;;;;;;;;;;;;;16.13;100.00;96737.31;5072849;28;20005;-75
2021/05/09 11:41:54;;;;;;;;;;;;;;;16.10;100.00;96727.06;5061433;28;19920;-75
2021/05/09 11:44:22;;;;;;;;;;;;;;;16.43;100.00;96722.63;5071687;28;19959;-75
2021/05/09 11:46:49;;;;;;;;;;;;;;;16.09;100.00;96736.81;5072871;28;20032;-75
2021/05/09 11:49:19;;;;;;;;;;;;;;;16.18;100.00;96721.69;5072876;28;20368;-75
2021/05/09 11:51:53;;;;;;;;;;;;;;;16.04;100.00;96729.13;5071481;28;19924;-75
2021/05/09 11:54:21;;;;;;;;;;;;;;;16.09;100.00;96730.41;5073100;28;19920;-75
2021/05/09 11:57:07;;;;;;;;;;;;;;;16.30;100.00;96733.69;5074764;28;20005;-75
2021/05/09 11:59:36;;;;;;;;;;;;;;;16.10;100.00;96732.72;5077028;28;19924;-75
2021/05/09 12:02:06;;;;;;;;;;;;;;;15.88;100.00;96729.94;5076913;28;20388;-75
2021/05/09 12:04:32;;;;;;;;;;;;;;;15.95;100.00;96743.50;5077108;28;19927;-75
2021/05/09 12:07:00;;;;;;;;;;;;;;;16.25;100.00;96752.16;5074667;28;20003;-75
2021/05/09 12:09:28;;;;;;;;;;;;;;;16.51;100.00;96726.47;5077102;28;19946;-75
2021/05/09 12:11:55;;;;;;;;;;;;;;;16.25;100.00;96735.25;5076631;28;19920;-75
2021/05/09 12:14:23;;;;;;;;;;;;;;;15.98;100.00;96742.47;5076656;28;19920;-75
2021/05/09 12:16:50;;;;;;;;;;;;;;;16.03;100.00;96738.09;5081544;28;19920;-75
2021/05/09 12:19:17;;;;;;;;;;;;;;;16.38;100.00;96741.09;5082062;28;20035;-76
2021/05/09 12:21:57;;;;;;;;;;;;;;;16.55;100.00;96738.25;5091404;28;19919;-75
2021/05/09 12:24:24;;;;;;;;;;;;;;;16.54;100.00;96725.44;5093403;28;19920;-75
2021/05/09 12:27:05;;;;;;;;;;;;;;;16.80;100.00;96742.72;5095160;28;19954;-75
2021/05/09 12:29:45;;;;;;;;;;;;;;;17.08;100.00;96718.75;5089745;28;19970;-75
2021/05/09 12:32:32;;;;;;;;;;;;;;;16.95;100.00;96748.81;5093720;28;19964;-74
2021/05/09 12:35:14;;;;;;;;;;;;;;;16.99;100.00;96735.19;5091263;28;20010;-75
2021/05/09 12:37:41;;;;;;;;;;;;;;;17.12;100.00;96738.19;5082683;28;21258;-75
2021/05/09 12:40:29;;;;;;;;;;;;;;;16.93;100.00;96757.81;5085135;28;19920;-75
2021/05/09 12:42:56;;;;;;;;;;;;;;;16.54;100.00;96748.00;5089566;28;19920;-75
2021/05/09 12:45:32;;;;;;;;;;;;;;;16.48;100.00;96756.44;5091314;28;19924;-75
2021/05/09 12:48:01;;;;;;;;;;;;;;;16.46;100.00;96746.97;5084044;28;19927;-75